Ellensburg, WA

5:32 AM PDT on April 26, 2017 (GMT -0700)
Bowers | | Change Station
Active Advisory: Wind Advisory

Elev 1762 ft 47.03 °N, 120.53 °W | Updated 39 minutes ago

Overcast
Overcast
46 °F
Feels Like 40 °F
N
13
Wind Variable Wind from WNW

Today
High -- | Low -- °F
--% Chance of Precip.
Yesterday
High -- | Low -- °F
Precip. -- in
Pressure 29.74 in
Visibility 10.0 miles
Clouds Overcast 4900 ft
Windchill 40 °F
Dew Point 39 °F
Humidity 76%
Rainfall 0.01 in
Snow Depth Not available.
5:54 AM 8:06 PM
New Moon, 0% visible
METAR KELN 261153Z AUTO 29011KT 10SM OVC049 08/04 A2974 RMK AO2 RAB18E34 SLP070 P0000 60002 70003 T00780039 10089 20067 56002
Pressure 29.74 in
Visibility 10.0 miles
Clouds Overcast 4900 ft
Windchill 40 °F
Dew Point 39 °F
Humidity 76%
Rainfall 0.01 in
Snow Depth Not available.
5:54 AM 8:06 PM
New Moon, 0% visible
METAR KELN 261153Z AUTO 29011KT 10SM OVC049 08/04 A2974 RMK AO2 RAB18E34 SLP070 P0000 60002 70003 T00780039 10089 20067 56002

Get Your Daily Forecast Email!

Thanks for signing up!

Be on the lookout for a verification email in your inbox.

You'll start receiving severe weather alerts in your inbox..

×

10-Day Weather Forecast

Almanac

Astronomy

Apr. 26, 2017 Rise Set
Actual Time
Civil Twilight
Nautical Twilight
Astronomical Twilight
Moon
Length of Visible Light
Length of Day
Tomorrow will be .
, % of the Moon is Illuminated

Today's Extremes

State Highs State Lows

Community

WunderPhotos

WunderBlog® & News

Nearby

Air Quality

  Air Quality AQ Index Pollutant
Not available.

Snow Depth

Station Depth Elevation

Earthquake Activity

City Distance Mag. Time & Date
Minimum magnitude displayed is 2.5.

Coastal Water Temperatures

Place Temperature

Stations

Nearby Weather Stations

Station Location Temp. Windchill Dew Point Humidity Wind Precip. Elev Updated Type
                   

Watches & Warnings

Wind Advisory
Issued: 10:21 PM PDT Apr. 25, 2017 – National Weather Service

... Wind Advisory remains in effect from 11 am Wednesday to 9 PM
PDT Thursday...

* winds... west 30 to 40 mph with gusts up to 50 mph.

* Timing... winds will increase Wednesday morning and it will
remain very windy through Thursday evening. Winds will be
strongest Wednesday and Thursday afternoon and evening.

* Impacts... strong winds may blow down limbs, trees, and power
lines. Scattered power outages are possible.

Precautionary/preparedness actions...

A Wind Advisory means that winds of 35 mph with higher gusts are
expected. Winds this strong can make driving difficult...
especially for high profile vehicles. Use extra caution.